Flight Track Log - Related Links

Times and Time Zones

All times are in EDT time to prevent confusion due to time zone crossing. See the SET1695 flight status page for this flight to view local times or setup timezone preferences in your user account.

Time Position Orientation Groundspeed Altitude Reporting Facility
EDT Latitude Longitude Course Direction KTS MPH feet Rate Location/Type
Mon 02:00:00 AM 34.9881 135.8259 57° Northeast  Level Estimated
Mon 02:01:00 AM 35.0386 135.9231 58° Northeast  Level Estimated
Mon 02:02:00 AM 35.0889 136.0205 58° Northeast  Level Estimated
Mon 02:03:00 AM 35.1392 136.1179 58° Northeast  Level Estimated
Mon 02:04:00 AM 35.1895 136.2155 58° Northeast  Level Estimated
Mon 02:05:00 AM 35.2396 136.3132 58° Northeast  Level Estimated
Mon 02:06:00 AM 35.2897 136.4110 58° Northeast  Level Estimated
Mon 02:07:00 AM 35.3396 136.5090 58° Northeast  Level Estimated
Mon 02:08:00 AM 35.3895 136.6070 58° Northeast  Level Estimated
Mon 02:09:00 AM 35.4394 136.7052 58° Northeast  Level Estimated
Mon 02:10:00 AM 35.4891 136.8035 58° Northeast  Level Estimated
Mon 02:11:00 AM 35.5388 136.9020 58° Northeast  Level Estimated
Mon 02:12:00 AM 35.5884 137.0005 58° Northeast  Level Estimated
Mon 02:13:00 AM 35.6379 137.0992 58° Northeast  Level Estimated
Mon 02:14:00 AM 35.6873 137.1980 58° Northeast  Level Estimated
Mon 02:15:00 AM 35.7366 137.2969 58° Northeast  Level Estimated
Mon 02:16:00 AM 35.7859 137.3959 58° Northeast  Level Estimated
Mon 02:17:00 AM 35.8351 137.4951 59° Northeast  Level Estimated
Mon 02:18:00 AM 35.8842 137.5944 59° Northeast  Level Estimated
Mon 02:19:00 AM 35.9332 137.6938 59° Northeast  Level Estimated
Mon 02:20:00 AM 35.9821 137.7933 59° Northeast  Level Estimated
Mon 02:21:00 AM 36.0310 137.8930 59° Northeast  Level Estimated
Mon 02:22:00 AM 36.0798 137.9928 59° Northeast  Level Estimated
Mon 02:23:00 AM 36.1284 138.0927 59° Northeast  Level Estimated
Mon 02:24:00 AM 36.1771 138.1927 59° Northeast  Level Estimated
Mon 02:25:00 AM 36.2256 138.2928 59° Northeast  Level Estimated
Mon 02:26:00 AM 36.2740 138.3931 59° Northeast  Level Estimated
Mon 02:27:00 AM 36.3224 138.4935 59° Northeast  Level Estimated
Mon 02:28:00 AM 36.3706 138.5941 59° Northeast  Level Estimated
Mon 02:29:00 AM 36.4188 138.6947 59° Northeast  Level Estimated
Mon 02:30:00 AM 36.4669 138.7955 59° Northeast  Level Estimated
Mon 02:31:00 AM 36.5149 138.8964 59° Northeast  Level Estimated
Mon 02:32:00 AM 36.5629 138.9974 59° Northeast  Level Estimated
Mon 02:33:00 AM 36.6107 139.0985 59° Northeast  Level Estimated
Mon 02:34:00 AM 36.6585 139.1998 60° Northeast  Level Estimated
Mon 02:35:00 AM 36.7062 139.3012 60° Northeast  Level Estimated
Mon 02:36:00 AM 36.7537 139.4028 60° Northeast  Level Estimated
Mon 02:37:00 AM 36.8012 139.5044 60° Northeast  Level Estimated
Mon 02:38:00 AM 36.8487 139.6062 60° Northeast  Level Estimated
Mon 02:39:00 AM 36.8960 139.7081 60° Northeast  Level Estimated
Mon 02:40:00 AM 36.9432 139.8101 60° Northeast  Level Estimated
Mon 02:41:00 AM 36.9904 139.9123 60° Northeast  Level Estimated
Mon 02:42:00 AM 37.0374 140.0146 60° Northeast  Level Estimated
Mon 02:43:00 AM 37.0844 140.1170 60° Northeast  Level Estimated
Mon 02:44:00 AM 37.1313 140.2195 60° Northeast  Level Estimated
Mon 02:45:00 AM 37.1781 140.3222 60° Northeast  Level Estimated
Mon 02:46:00 AM 37.2248 140.4250 60° Northeast  Level Estimated
Mon 02:47:00 AM 37.2274 140.4307 60° Northeast  Level Estimated
Mon 02:48:00 AM 37.2274 140.4307 302° West  Level Estimated
Mon 02:49:00 AM 37.2274 140.4307 302° West  Level Estimated
Mon 02:50:00 AM 37.2274 140.4307 302° West  Level Estimated
Mon 02:51:00 AM 37.2274 140.4307 302° West  Level Estimated
Mon 02:52:00 AM 37.2274 140.4307 302° West  Level Estimated
Mon 02:53:00 AM 37.2274 140.4307 302° West  Level Estimated
Mon 02:54:00 AM 37.2274 140.4307 302° West  Level Estimated
Mon 02:55:00 AM 37.2274 140.4307 302° West  Level Estimated
Mon 02:56:00 AM 37.2274 140.4307 302° West  Level Estimated
Mon 02:57:00 AM 37.2274 140.4307 302° West  Level Estimated
Mon 02:58:00 AM 37.2274 140.4307 302° West  Level Estimated

Login

Don't have an account? Register now (free) for customized features, flight alerts, and more!